createdAt,value
2022-09-20T00:00:50.369Z,100.00
2022-09-20T00:06:14.838Z,100.00
2022-09-20T00:11:37.050Z,100.00
2022-09-20T00:16:58.868Z,100.00
2022-09-20T00:22:20.729Z,100.00
2022-09-20T00:27:42.788Z,100.00
2022-09-20T00:33:04.890Z,100.00
2022-09-20T00:38:26.702Z,100.00
2022-09-20T00:43:48.478Z,100.00
2022-09-20T00:49:25.544Z,100.00
2022-09-20T00:54:48.123Z,100.00
2022-09-20T01:00:11.864Z,100.00
2022-09-20T01:05:35.737Z,100.00
2022-09-20T01:10:57.564Z,100.00
2022-09-20T01:16:20.946Z,100.00
2022-09-20T01:21:43.240Z,100.00
2022-09-20T01:27:17.128Z,100.00
2022-09-20T01:33:17.457Z,100.00
2022-09-20T01:38:56.178Z,100.00
2022-09-20T01:44:45.637Z,100.00
2022-09-20T01:50:34.214Z,100.00
2022-09-20T01:56:17.454Z,100.00
2022-09-20T02:01:45.218Z,100.00
2022-09-20T02:07:51.458Z,100.00
2022-09-20T02:13:47.643Z,100.00
2022-09-20T02:19:40.536Z,100.00
2022-09-20T02:25:22.575Z,100.00
2022-09-20T02:30:56.779Z,100.00
2022-09-20T02:36:37.053Z,100.00
2022-09-20T02:42:20.637Z,100.00
2022-09-20T02:47:47.351Z,100.00
2022-09-20T02:53:09.012Z,100.00
2022-09-20T02:58:48.550Z,100.00
2022-09-20T03:04:40.058Z,100.00
2022-09-20T03:10:01.776Z,100.00
2022-09-20T03:15:57.311Z,100.00
2022-09-20T03:21:34.720Z,100.00
2022-09-20T03:27:09.619Z,100.00
2022-09-20T03:32:48.802Z,100.00
2022-09-20T03:38:25.501Z,100.00
2022-09-20T03:43:56.421Z,100.00
2022-09-20T03:49:33.559Z,100.00
2022-09-20T03:55:07.405Z,100.00
2022-09-20T04:01:00.146Z,100.00
2022-09-20T04:06:40.765Z,100.00
2022-09-20T04:12:22.471Z,100.00
2022-09-20T04:18:12.135Z,100.00
2022-09-20T04:24:06.607Z,100.00
2022-09-20T04:29:44.425Z,100.00
2022-09-20T04:35:43.802Z,100.00
2022-09-20T04:41:51.132Z,100.00
2022-09-20T04:47:21.882Z,100.00
2022-09-20T04:52:52.671Z,100.00
2022-09-20T04:58:39.709Z,100.00
2022-09-20T05:04:30.604Z,100.00
2022-09-20T05:10:01.871Z,100.00
2022-09-20T05:15:41.809Z,100.00
2022-09-20T05:21:15.349Z,100.00
2022-09-20T05:26:43.108Z,100.00
2022-09-20T05:32:39.882Z,100.00
2022-09-20T05:38:20.266Z,100.00
2022-09-20T05:44:06.387Z,100.00
2022-09-20T05:50:04.238Z,100.00
2022-09-20T05:55:50.769Z,100.00
2022-09-20T06:01:24.784Z,100.00
2022-09-20T06:06:49.560Z,100.00
2022-09-20T06:12:48.787Z,100.00
2022-09-20T06:18:16.292Z,100.00
2022-09-20T06:23:38.116Z,100.00
2022-09-20T06:29:05.482Z,100.00
2022-09-20T06:34:28.632Z,100.00
2022-09-20T06:40:03.006Z,100.00
2022-09-20T06:45:24.880Z,100.00
2022-09-20T06:50:46.707Z,100.00
2022-09-20T06:56:14.391Z,100.00
2022-09-20T07:01:36.715Z,100.00
2022-09-20T07:07:07.339Z,100.00
2022-09-20T07:12:31.004Z,99.82
2022-09-20T07:17:52.846Z,98.20
2022-09-20T07:23:14.918Z,98.42
2022-09-20T07:28:36.716Z,97.60
2022-09-20T07:33:58.658Z,94.40
2022-09-20T07:39:20.446Z,93.54
2022-09-20T07:44:42.256Z,92.28
2022-09-20T07:50:04.784Z,95.18
2022-09-20T07:55:26.592Z,94.09
2022-09-20T08:00:56.685Z,93.34
2022-09-20T08:06:18.737Z,89.87
2022-09-20T08:11:42.057Z,86.18
2022-09-20T08:17:03.844Z,87.33
2022-09-20T08:22:25.656Z,87.10
2022-09-20T08:27:54.005Z,86.41
2022-09-20T08:33:15.792Z,86.48
2022-09-20T08:44:36.562Z,85.91
2022-09-20T08:50:00.857Z,87.16
2022-09-20T08:55:27.928Z,85.30
2022-09-20T09:00:50.179Z,85.38
2022-09-20T09:06:18.405Z,86.71
2022-09-20T09:11:45.742Z,87.73
2022-09-20T09:17:10.458Z,88.53
2022-09-20T09:22:35.252Z,88.91
2022-09-20T09:28:03.154Z,88.18
2022-09-20T09:33:29.084Z,87.33
2022-09-20T09:39:11.430Z,88.97
2022-09-20T09:44:33.350Z,90.35
2022-09-20T09:50:01.886Z,90.43
2022-09-20T09:55:37.826Z,87.59
2022-09-20T10:01:03.041Z,82.44
2022-09-20T10:06:57.972Z,77.53
2022-09-20T10:12:34.677Z,76.88
2022-09-20T10:18:28.843Z,74.37
2022-09-20T10:24:17.968Z,75.25
2022-09-20T10:30:04.859Z,76.54
2022-09-20T10:35:36.771Z,75.75
2022-09-20T10:41:16.307Z,73.03
2022-09-20T10:46:44.081Z,75.20
2022-09-20T10:52:13.532Z,72.68
2022-09-20T10:57:46.736Z,69.59
2022-09-20T11:03:17.761Z,71.24
2022-09-20T11:08:40.842Z,71.52
2022-09-20T11:14:21.363Z,71.09
2022-09-20T11:20:02.199Z,66.81
2022-09-20T11:25:38.509Z,66.52
2022-09-20T11:31:20.288Z,63.89
2022-09-20T11:36:49.151Z,66.60
2022-09-20T11:42:16.772Z,67.16
2022-09-20T11:47:56.022Z,69.08
2022-09-20T11:53:26.836Z,68.54
2022-09-20T11:58:54.486Z,68.75
2022-09-20T12:04:39.003Z,69.69
2022-09-20T12:10:05.327Z,68.99
2022-09-20T12:15:31.455Z,67.29
2022-09-20T12:20:56.353Z,64.86
2022-09-20T12:26:21.173Z,64.05
2022-09-20T12:31:51.170Z,63.44
2022-09-20T12:37:12.920Z,63.18
2022-09-20T12:42:35.444Z,63.72
2022-09-20T12:47:57.398Z,63.28
2022-09-20T12:53:19.444Z,65.23
2022-09-20T12:58:52.390Z,65.10
2022-09-20T13:04:39.182Z,63.12
2022-09-20T13:10:20.906Z,63.14
2022-09-20T13:15:48.933Z,63.55
2022-09-20T13:21:10.836Z,63.10
2022-09-20T13:26:41.122Z,64.91
2022-09-20T13:32:31.535Z,65.39
2022-09-20T13:37:53.260Z,65.84
2022-09-20T13:43:29.549Z,67.23
2022-09-20T13:49:12.464Z,74.66
2022-09-20T13:54:34.228Z,79.70
2022-09-20T13:59:56.790Z,81.00
2022-09-20T14:05:19.997Z,81.46
2022-09-20T14:10:41.810Z,81.23
2022-09-20T14:16:04.044Z,80.51
2022-09-20T14:21:27.932Z,81.00
2022-09-20T14:27:19.288Z,81.80
2022-09-20T14:32:50.675Z,81.27
2022-09-20T14:38:15.134Z,81.64
2022-09-20T14:43:37.082Z,81.27
2022-09-20T14:49:23.848Z,81.51
2022-09-20T14:55:00.044Z,82.79
2022-09-20T15:00:21.892Z,84.91
2022-09-20T15:05:49.288Z,83.85
2022-09-20T15:11:18.639Z,85.70
2022-09-20T15:16:40.537Z,88.37
2022-09-20T15:22:02.455Z,87.95
2022-09-20T15:27:28.222Z,81.82
2022-09-20T15:32:50.296Z,81.64
2022-09-20T15:38:13.309Z,82.44
2022-09-20T15:43:35.090Z,86.29
2022-09-20T15:48:59.814Z,88.83
2022-09-20T15:54:21.582Z,92.19
2022-09-20T15:59:43.518Z,91.90
2022-09-20T16:05:05.568Z,92.62
2022-09-20T16:10:27.342Z,94.30
2022-09-20T16:16:00.124Z,96.93
2022-09-20T16:21:22.570Z,96.83
2022-09-20T16:26:44.783Z,96.57
2022-09-20T16:32:06.578Z,98.20
2022-09-20T16:37:28.683Z,99.04
2022-09-20T16:42:52.463Z,99.00
2022-09-20T16:48:14.626Z,99.15
2022-09-20T16:53:36.731Z,99.66
2022-09-20T16:58:58.709Z,100.00
2022-09-20T17:04:21.228Z,100.00
2022-09-20T17:09:43.442Z,100.00
2022-09-20T17:15:06.069Z,100.00
2022-09-20T17:20:28.373Z,100.00
2022-09-20T17:26:01.945Z,100.00
2022-09-20T17:31:29.589Z,100.00
2022-09-20T17:36:52.578Z,100.00
2022-09-20T17:42:14.375Z,100.00
2022-09-20T17:47:36.331Z,100.00
2022-09-20T17:52:58.103Z,100.00
2022-09-20T17:58:19.907Z,100.00
2022-09-20T18:03:44.413Z,100.00
2022-09-20T18:09:10.721Z,100.00
2022-09-20T18:14:32.568Z,100.00
2022-09-20T18:19:54.399Z,100.00
2022-09-20T18:25:16.443Z,100.00
2022-09-20T18:30:38.446Z,100.00
2022-09-20T18:36:02.527Z,100.00
2022-09-20T18:41:27.091Z,100.00
2022-09-20T18:46:49.775Z,100.00
2022-09-20T18:52:11.873Z,100.00
2022-09-20T18:57:35.059Z,100.00
2022-09-20T19:03:11.686Z,100.00
2022-09-20T19:08:38.434Z,100.00
2022-09-20T19:14:10.310Z,100.00
2022-09-20T19:19:53.735Z,100.00
2022-09-20T19:25:25.955Z,100.00
2022-09-20T19:30:47.959Z,100.00
2022-09-20T19:36:10.272Z,100.00
2022-09-20T19:42:04.673Z,100.00
2022-09-20T19:47:44.483Z,100.00
2022-09-20T19:53:06.933Z,100.00
2022-09-20T19:58:28.951Z,100.00
2022-09-20T20:03:52.221Z,100.00
2022-09-20T20:09:45.648Z,100.00
2022-09-20T20:15:39.151Z,100.00
2022-09-20T20:21:01.010Z,100.00
2022-09-20T20:26:26.410Z,100.00
2022-09-20T20:31:48.216Z,100.00
2022-09-20T20:37:10.172Z,100.00
2022-09-20T20:42:32.152Z,100.00
2022-09-20T20:47:57.854Z,100.00
2022-09-20T20:53:19.774Z,100.00
2022-09-20T20:58:43.179Z,100.00
2022-09-20T21:04:05.542Z,100.00
2022-09-20T21:09:27.347Z,100.00
2022-09-20T21:14:49.140Z,100.00
2022-09-20T21:20:10.928Z,100.00
2022-09-20T21:25:32.887Z,100.00
2022-09-20T21:31:00.472Z,100.00
2022-09-20T21:36:28.966Z,100.00
2022-09-20T21:41:50.796Z,100.00
2022-09-20T21:47:12.605Z,100.00
2022-09-20T21:52:34.382Z,100.00
2022-09-20T21:57:56.149Z,100.00
2022-09-20T22:03:17.956Z,100.00
2022-09-20T22:08:48.626Z,100.00
2022-09-20T22:14:11.764Z,100.00
2022-09-20T22:19:33.534Z,100.00
2022-09-20T22:24:55.323Z,100.00
2022-09-20T22:30:17.230Z,100.00
2022-09-20T22:35:44.487Z,100.00
2022-09-20T22:41:06.572Z,100.00
2022-09-20T22:46:29.962Z,100.00
2022-09-20T22:51:51.769Z,100.00
2022-09-20T22:57:13.694Z,100.00
2022-09-20T23:02:35.559Z,100.00
2022-09-20T23:07:57.326Z,100.00
2022-09-20T23:13:19.147Z,100.00
2022-09-20T23:18:41.834Z,100.00
2022-09-20T23:24:05.729Z,100.00
2022-09-20T23:29:27.762Z,100.00
2022-09-20T23:34:49.516Z,100.00
2022-09-20T23:40:11.506Z,100.00
2022-09-20T23:45:33.337Z,100.00
2022-09-20T23:50:55.374Z,100.00
2022-09-20T23:56:17.706Z,100.00
